Terminal Aerodrome Forecast
Issued by NWS Cleveland, OH

Home | Current Version | Previous Version | Text Only | Print | Product List | Glossary On
Versions: 1 2 3 4 5 6 7 8 9 10 11 12 13 14 15 16 17 18 19 20 21 22
000
FTUS41 KCLE 301128
TAFCAK
TAF
KCAK 301128Z 3012/0112 08006KT 2SM BR BKN008 OVC012
     FM301400 08006KT P6SM SCT008 BKN012
     FM301600 10008KT P6SM SCT012 BKN150
     FM302300 11008KT 6SM -RA BR OVC035
      TEMPO 0100/0103 3SM -RA BR OVC020
     FM010300 14012KT 3SM -RA BR OVC010
     FM010800 18011KT 3SM -RA BR OVC010=

USA.gov is the U.S. government's official web portal to all federal, state and local government web resources and services.